sensor_id;sensor_type;location;lat;lon;timestamp;temperature;humidity
72865;DHT22;61000;48.120;11.548;2024-03-02T00:00:49;6.40;99.90
72865;DHT22;61000;48.120;11.548;2024-03-02T00:03:17;6.30;99.90
72865;DHT22;61000;48.120;11.548;2024-03-02T00:05:44;6.40;99.90
72865;DHT22;61000;48.120;11.548;2024-03-02T00:08:22;6.30;99.90
72865;DHT22;61000;48.120;11.548;2024-03-02T00:10:49;6.30;99.90
72865;DHT22;61000;48.120;11.548;2024-03-02T00:13:16;6.30;99.90
72865;DHT22;61000;48.120;11.548;2024-03-02T00:15:47;6.30;99.90
72865;DHT22;61000;48.120;11.548;2024-03-02T00:18:19;6.30;99.90
72865;DHT22;61000;48.120;11.548;2024-03-02T00:20:46;6.30;99.90
72865;DHT22;61000;48.120;11.548;2024-03-02T00:23:16;6.20;99.90
72865;DHT22;61000;48.120;11.548;2024-03-02T00:25:47;6.20;99.90
72865;DHT22;61000;48.120;11.548;2024-03-02T00:28:17;6.10;99.90
72865;DHT22;61000;48.120;11.548;2024-03-02T00:31:02;6.20;99.90
72865;DHT22;61000;48.120;11.548;2024-03-02T00:33:32;6.20;99.90
72865;DHT22;61000;48.120;11.548;2024-03-02T00:35:59;6.20;99.90
72865;DHT22;61000;48.120;11.548;2024-03-02T00:38:28;6.20;99.90
72865;DHT22;61000;48.120;11.548;2024-03-02T00:40:56;6.20;99.90
72865;DHT22;61000;48.120;11.548;2024-03-02T00:43:41;6.20;99.90
72865;DHT22;61000;48.120;11.548;2024-03-02T00:46:08;6.20;99.90
72865;DHT22;61000;48.120;11.548;2024-03-02T00:48:35;6.20;99.90
72865;DHT22;61000;48.120;11.548;2024-03-02T00:51:03;6.20;99.90
72865;DHT22;61000;48.120;11.548;2024-03-02T00:53:32;6.20;99.90
72865;DHT22;61000;48.120;11.548;2024-03-02T00:55:59;6.20;99.90
72865;DHT22;61000;48.120;11.548;2024-03-02T00:58:27;6.20;99.90
72865;DHT22;61000;48.120;11.548;2024-03-02T01:00:54;6.10;99.90
72865;DHT22;61000;48.120;11.548;2024-03-02T01:03:21;6.10;99.90
72865;DHT22;61000;48.120;11.548;2024-03-02T01:05:48;6.10;99.90
72865;DHT22;61000;48.120;11.548;2024-03-02T01:08:14;6.10;99.90
72865;DHT22;61000;48.120;11.548;2024-03-02T01:10:43;6.10;99.90
72865;DHT22;61000;48.120;11.548;2024-03-02T01:13:10;6.10;99.90
72865;DHT22;61000;48.120;11.548;2024-03-02T01:15:37;6.10;99.90
72865;DHT22;61000;48.120;11.548;2024-03-02T01:18:04;6.10;99.90
72865;DHT22;61000;48.120;11.548;2024-03-02T01:20:31;6.10;99.90
72865;DHT22;61000;48.120;11.548;2024-03-02T01:22:58;6.10;99.90
72865;DHT22;61000;48.120;11.548;2024-03-02T01:25:25;6.10;99.90
72865;DHT22;61000;48.120;11.548;2024-03-02T01:27:53;6.00;99.90
72865;DHT22;61000;48.120;11.548;2024-03-02T01:30:20;6.10;99.90
72865;DHT22;61000;48.120;11.548;2024-03-02T01:32:47;6.10;99.90
72865;DHT22;61000;48.120;11.548;2024-03-02T01:35:14;6.10;99.90
72865;DHT22;61000;48.120;11.548;2024-03-02T01:37:41;6.10;99.90
72865;DHT22;61000;48.120;11.548;2024-03-02T01:40:09;6.00;99.90
72865;DHT22;61000;48.120;11.548;2024-03-02T01:42:37;6.10;99.90
72865;DHT22;61000;48.120;11.548;2024-03-02T01:45:06;6.10;99.90
72865;DHT22;61000;48.120;11.548;2024-03-02T01:47:33;6.10;99.90
72865;DHT22;61000;48.120;11.548;2024-03-02T01:50:01;6.10;99.90
72865;DHT22;61000;48.120;11.548;2024-03-02T01:52:28;6.10;99.90
72865;DHT22;61000;48.120;11.548;2024-03-02T01:54:55;6.10;99.90
72865;DHT22;61000;48.120;11.548;2024-03-02T01:57:22;6.10;99.90
72865;DHT22;61000;48.120;11.548;2024-03-02T01:59:49;6.00;99.90
72865;DHT22;61000;48.120;11.548;2024-03-02T02:02:18;6.00;99.90
72865;DHT22;61000;48.120;11.548;2024-03-02T02:04:46;6.00;99.90
72865;DHT22;61000;48.120;11.548;2024-03-02T02:07:13;6.00;99.90
72865;DHT22;61000;48.120;11.548;2024-03-02T02:09:41;6.00;99.90
72865;DHT22;61000;48.120;11.548;2024-03-02T02:12:08;6.00;99.90
72865;DHT22;61000;48.120;11.548;2024-03-02T02:14:35;6.00;99.90
72865;DHT22;61000;48.120;11.548;2024-03-02T02:17:02;6.00;99.90
72865;DHT22;61000;48.120;11.548;2024-03-02T02:19:31;6.00;99.90
72865;DHT22;61000;48.120;11.548;2024-03-02T02:21:59;6.00;99.90
72865;DHT22;61000;48.120;11.548;2024-03-02T02:24:26;6.00;99.90
72865;DHT22;61000;48.120;11.548;2024-03-02T02:26:53;6.00;99.90
72865;DHT22;61000;48.120;11.548;2024-03-02T02:29:20;6.00;99.90
72865;DHT22;61000;48.120;11.548;2024-03-02T02:31:47;6.00;99.90
72865;DHT22;61000;48.120;11.548;2024-03-02T02:34:14;6.00;99.90
72865;DHT22;61000;48.120;11.548;2024-03-02T02:36:41;6.00;99.90
72865;DHT22;61000;48.120;11.548;2024-03-02T02:39:14;6.00;99.90
72865;DHT22;61000;48.120;11.548;2024-03-02T02:41:42;6.00;99.90
72865;DHT22;61000;48.120;11.548;2024-03-02T02:44:09;6.00;99.90
72865;DHT22;61000;48.120;11.548;2024-03-02T02:46:38;6.10;99.90
72865;DHT22;61000;48.120;11.548;2024-03-02T02:49:05;6.00;99.90
72865;DHT22;61000;48.120;11.548;2024-03-02T02:51:32;6.00;99.90
72865;DHT22;61000;48.120;11.548;2024-03-02T02:53:59;6.10;99.90
72865;DHT22;61000;48.120;11.548;2024-03-02T02:56:27;6.10;99.90
72865;DHT22;61000;48.120;11.548;2024-03-02T02:58:54;6.10;99.90
72865;DHT22;61000;48.120;11.548;2024-03-02T03:01:21;6.10;99.90
72865;DHT22;61000;48.120;11.548;2024-03-02T03:03:48;6.10;99.90
72865;DHT22;61000;48.120;11.548;2024-03-02T03:06:14;6.10;99.90
72865;DHT22;61000;48.120;11.548;2024-03-02T03:08:41;6.20;99.90
72865;DHT22;61000;48.120;11.548;2024-03-02T03:11:08;6.20;99.90
72865;DHT22;61000;48.120;11.548;2024-03-02T03:13:37;6.20;99.90
72865;DHT22;61000;48.120;11.548;2024-03-02T03:16:04;6.20;99.90
72865;DHT22;61000;48.120;11.548;2024-03-02T03:18:31;6.20;99.90
72865;DHT22;61000;48.120;11.548;2024-03-02T03:20:58;6.20;99.90
72865;DHT22;61000;48.120;11.548;2024-03-02T03:23:25;6.20;99.90
72865;DHT22;61000;48.120;11.548;2024-03-02T03:25:52;6.20;99.90
72865;DHT22;61000;48.120;11.548;2024-03-02T03:28:19;6.20;99.90
72865;DHT22;61000;48.120;11.548;2024-03-02T03:30:47;6.20;99.90
72865;DHT22;61000;48.120;11.548;2024-03-02T03:33:14;6.20;99.90
72865;DHT22;61000;48.120;11.548;2024-03-02T03:35:41;6.20;99.90
72865;DHT22;61000;48.120;11.548;2024-03-02T03:38:07;6.10;99.90
72865;DHT22;61000;48.120;11.548;2024-03-02T03:40:34;6.20;99.90
72865;DHT22;61000;48.120;11.548;2024-03-02T03:43:01;6.20;99.90
72865;DHT22;61000;48.120;11.548;2024-03-02T03:45:28;6.20;99.90
72865;DHT22;61000;48.120;11.548;2024-03-02T03:47:57;6.10;99.90
72865;DHT22;61000;48.120;11.548;2024-03-02T03:50:24;6.20;99.90
72865;DHT22;61000;48.120;11.548;2024-03-02T03:52:51;6.10;99.90
72865;DHT22;61000;48.120;11.548;2024-03-02T03:55:18;6.20;99.90
72865;DHT22;61000;48.120;11.548;2024-03-02T03:57:45;6.20;99.90
72865;DHT22;61000;48.120;11.548;2024-03-02T04:00:12;6.10;99.90
72865;DHT22;61000;48.120;11.548;2024-03-02T04:02:39;6.10;99.90
72865;DHT22;61000;48.120;11.548;2024-03-02T04:05:08;6.20;99.90
72865;DHT22;61000;48.120;11.548;2024-03-02T04:07:36;6.20;99.90
72865;DHT22;61000;48.120;11.548;2024-03-02T04:10:07;6.20;99.90
72865;DHT22;61000;48.120;11.548;2024-03-02T04:12:35;6.20;99.90
72865;DHT22;61000;48.120;11.548;2024-03-02T04:15:04;6.20;99.90
72865;DHT22;61000;48.120;11.548;2024-03-02T04:17:32;6.20;99.90
72865;DHT22;61000;48.120;11.548;2024-03-02T04:19:59;6.20;99.90
72865;DHT22;61000;48.120;11.548;2024-03-02T04:22:27;6.20;99.90
72865;DHT22;61000;48.120;11.548;2024-03-02T04:24:54;6.20;99.90
72865;DHT22;61000;48.120;11.548;2024-03-02T04:27:21;6.20;99.90
72865;DHT22;61000;48.120;11.548;2024-03-02T04:29:48;6.20;99.90
72865;DHT22;61000;48.120;11.548;2024-03-02T04:32:15;6.20;99.90
72865;DHT22;61000;48.120;11.548;2024-03-02T04:34:42;6.20;99.90
72865;DHT22;61000;48.120;11.548;2024-03-02T04:37:11;6.10;99.90
72865;DHT22;61000;48.120;11.548;2024-03-02T04:39:41;6.10;99.90
72865;DHT22;61000;48.120;11.548;2024-03-02T04:42:08;6.10;99.90
72865;DHT22;61000;48.120;11.548;2024-03-02T04:44:34;6.20;99.90
72865;DHT22;61000;48.120;11.548;2024-03-02T04:47:02;6.10;99.90
72865;DHT22;61000;48.120;11.548;2024-03-02T04:49:29;6.20;99.90
72865;DHT22;61000;48.120;11.548;2024-03-02T04:51:56;6.20;99.90
72865;DHT22;61000;48.120;11.548;2024-03-02T04:54:23;6.20;99.90
72865;DHT22;61000;48.120;11.548;2024-03-02T04:56:52;6.20;99.90
72865;DHT22;61000;48.120;11.548;2024-03-02T04:59:19;6.20;99.90
72865;DHT22;61000;48.120;11.548;2024-03-02T05:01:46;6.20;99.90
72865;DHT22;61000;48.120;11.548;2024-03-02T05:04:13;6.10;99.90
72865;DHT22;61000;48.120;11.548;2024-03-02T05:06:41;6.10;99.90
72865;DHT22;61000;48.120;11.548;2024-03-02T05:09:08;6.10;99.90
72865;DHT22;61000;48.120;11.548;2024-03-02T05:11:35;6.10;99.90
72865;DHT22;61000;48.120;11.548;2024-03-02T05:14:38;6.20;99.90
72865;DHT22;61000;48.120;11.548;2024-03-02T05:17:04;6.20;99.90
72865;DHT22;61000;48.120;11.548;2024-03-02T05:19:31;6.10;99.90
72865;DHT22;61000;48.120;11.548;2024-03-02T05:21:58;6.20;99.90
72865;DHT22;61000;48.120;11.548;2024-03-02T05:24:25;6.20;99.90
72865;DHT22;61000;48.120;11.548;2024-03-02T05:26:53;6.20;99.90
72865;DHT22;61000;48.120;11.548;2024-03-02T05:29:21;6.20;99.90
72865;DHT22;61000;48.120;11.548;2024-03-02T05:31:49;6.20;99.90
72865;DHT22;61000;48.120;11.548;2024-03-02T05:34:16;6.20;99.90
72865;DHT22;61000;48.120;11.548;2024-03-02T05:36:44;6.20;99.90
72865;DHT22;61000;48.120;11.548;2024-03-02T05:39:11;6.20;99.90
72865;DHT22;61000;48.120;11.548;2024-03-02T05:41:37;6.20;99.90
72865;DHT22;61000;48.120;11.548;2024-03-02T05:44:04;6.30;99.90
72865;DHT22;61000;48.120;11.548;2024-03-02T05:46:31;6.20;99.90
72865;DHT22;61000;48.120;11.548;2024-03-02T05:49:00;6.20;99.90
72865;DHT22;61000;48.120;11.548;2024-03-02T05:51:27;6.20;99.90
72865;DHT22;61000;48.120;11.548;2024-03-02T05:53:54;6.20;99.90
72865;DHT22;61000;48.120;11.548;2024-03-02T05:56:21;6.20;99.90
72865;DHT22;61000;48.120;11.548;2024-03-02T05:58:47;6.20;99.90
72865;DHT22;61000;48.120;11.548;2024-03-02T06:01:26;6.20;99.90
72865;DHT22;61000;48.120;11.548;2024-03-02T06:03:55;6.20;99.90
72865;DHT22;61000;48.120;11.548;2024-03-02T06:06:23;6.20;99.90
72865;DHT22;61000;48.120;11.548;2024-03-02T06:08:50;6.30;99.90
72865;DHT22;61000;48.120;11.548;2024-03-02T06:11:19;6.20;99.90
72865;DHT22;61000;48.120;11.548;2024-03-02T06:13:46;6.30;99.90
72865;DHT22;61000;48.120;11.548;2024-03-02T06:16:13;6.20;99.90
72865;DHT22;61000;48.120;11.548;2024-03-02T06:18:40;6.20;99.90
72865;DHT22;61000;48.120;11.548;2024-03-02T06:21:07;6.20;99.90
72865;DHT22;61000;48.120;11.548;2024-03-02T06:23:35;6.20;99.90
72865;DHT22;61000;48.120;11.548;2024-03-02T06:26:02;6.30;99.90
72865;DHT22;61000;48.120;11.548;2024-03-02T06:28:29;6.20;99.90
72865;DHT22;61000;48.120;11.548;2024-03-02T06:30:56;6.20;99.90
72865;DHT22;61000;48.120;11.548;2024-03-02T06:33:23;6.20;99.90
72865;DHT22;61000;48.120;11.548;2024-03-02T06:35:50;6.20;99.90
72865;DHT22;61000;48.120;11.548;2024-03-02T06:38:16;6.20;99.90
72865;DHT22;61000;48.120;11.548;2024-03-02T06:40:45;6.20;99.90
72865;DHT22;61000;48.120;11.548;2024-03-02T06:43:11;6.30;99.90
72865;DHT22;61000;48.120;11.548;2024-03-02T06:45:38;6.30;99.90
72865;DHT22;61000;48.120;11.548;2024-03-02T06:48:06;6.30;99.90
72865;DHT22;61000;48.120;11.548;2024-03-02T06:50:33;6.30;99.90
72865;DHT22;61000;48.120;11.548;2024-03-02T06:53:00;6.40;99.90
72865;DHT22;61000;48.120;11.548;2024-03-02T06:55:29;6.40;99.90
72865;DHT22;61000;48.120;11.548;2024-03-02T06:57:58;6.40;99.90
72865;DHT22;61000;48.120;11.548;2024-03-02T07:00:24;6.40;99.90
72865;DHT22;61000;48.120;11.548;2024-03-02T07:02:51;6.40;99.90
72865;DHT22;61000;48.120;11.548;2024-03-02T07:05:18;6.40;99.90
72865;DHT22;61000;48.120;11.548;2024-03-02T07:07:46;6.30;99.90
72865;DHT22;61000;48.120;11.548;2024-03-02T07:10:13;6.40;99.90
72865;DHT22;61000;48.120;11.548;2024-03-02T07:12:40;6.40;99.90
72865;DHT22;61000;48.120;11.548;2024-03-02T07:15:09;6.40;99.90
72865;DHT22;61000;48.120;11.548;2024-03-02T07:18:03;6.40;99.90
72865;DHT22;61000;48.120;11.548;2024-03-02T07:20:29;6.40;99.90
72865;DHT22;61000;48.120;11.548;2024-03-02T07:22:56;6.30;99.90
72865;DHT22;61000;48.120;11.548;2024-03-02T07:25:23;6.40;99.90
72865;DHT22;61000;48.120;11.548;2024-03-02T07:27:50;6.30;99.90
72865;DHT22;61000;48.120;11.548;2024-03-02T07:30:19;6.40;99.90
72865;DHT22;61000;48.120;11.548;2024-03-02T07:32:49;6.40;99.90
72865;DHT22;61000;48.120;11.548;2024-03-02T07:35:16;6.40;99.90
72865;DHT22;61000;48.120;11.548;2024-03-02T07:37:44;6.40;99.90
72865;DHT22;61000;48.120;11.548;2024-03-02T07:40:11;6.40;99.90
72865;DHT22;61000;48.120;11.548;2024-03-02T07:42:38;6.40;99.90
72865;DHT22;61000;48.120;11.548;2024-03-02T07:45:06;6.40;99.90
72865;DHT22;61000;48.120;11.548;2024-03-02T07:47:35;6.50;99.90
72865;DHT22;61000;48.120;11.548;2024-03-02T07:50:02;6.50;99.90
72865;DHT22;61000;48.120;11.548;2024-03-02T07:52:31;6.50;99.90
72865;DHT22;61000;48.120;11.548;2024-03-02T07:54:58;6.50;99.90
72865;DHT22;61000;48.120;11.548;2024-03-02T07:57:25;6.50;99.90
72865;DHT22;61000;48.120;11.548;2024-03-02T07:59:52;6.60;99.90
72865;DHT22;61000;48.120;11.548;2024-03-02T08:02:19;6.60;99.90
72865;DHT22;61000;48.120;11.548;2024-03-02T08:04:49;6.60;99.90
72865;DHT22;61000;48.120;11.548;2024-03-02T08:07:16;6.70;99.90
72865;DHT22;61000;48.120;11.548;2024-03-02T08:09:43;6.70;99.90
72865;DHT22;61000;48.120;11.548;2024-03-02T08:12:09;6.80;99.90
72865;DHT22;61000;48.120;11.548;2024-03-02T08:14:36;6.90;99.90
72865;DHT22;61000;48.120;11.548;2024-03-02T08:17:03;7.00;99.90
72865;DHT22;61000;48.120;11.548;2024-03-02T08:19:35;7.20;99.90
72865;DHT22;61000;48.120;11.548;2024-03-02T08:22:04;7.30;99.90
72865;DHT22;61000;48.120;11.548;2024-03-02T08:24:31;7.40;99.90
72865;DHT22;61000;48.120;11.548;2024-03-02T08:26:58;7.60;99.90
72865;DHT22;61000;48.120;11.548;2024-03-02T08:29:25;7.70;99.90
72865;DHT22;61000;48.120;11.548;2024-03-02T08:31:53;7.80;99.90
72865;DHT22;61000;48.120;11.548;2024-03-02T08:34:20;7.90;99.90
72865;DHT22;61000;48.120;11.548;2024-03-02T08:36:46;8.00;99.90
72865;DHT22;61000;48.120;11.548;2024-03-02T08:39:15;8.10;99.90
72865;DHT22;61000;48.120;11.548;2024-03-02T08:41:42;8.10;99.90
72865;DHT22;61000;48.120;11.548;2024-03-02T08:44:09;8.30;99.90
72865;DHT22;61000;48.120;11.548;2024-03-02T08:46:36;8.40;99.90
72865;DHT22;61000;48.120;11.548;2024-03-02T08:49:03;8.50;99.90
72865;DHT22;61000;48.120;11.548;2024-03-02T08:51:30;8.70;99.90
72865;DHT22;61000;48.120;11.548;2024-03-02T08:53:57;8.80;99.90
72865;DHT22;61000;48.120;11.548;2024-03-02T08:56:25;8.90;99.90
72865;DHT22;61000;48.120;11.548;2024-03-02T08:58:52;9.00;99.90
72865;DHT22;61000;48.120;11.548;2024-03-02T09:01:19;9.20;99.90
72865;DHT22;61000;48.120;11.548;2024-03-02T09:03:46;9.50;99.90
72865;DHT22;61000;48.120;11.548;2024-03-02T09:06:15;9.90;99.90
72865;DHT22;61000;48.120;11.548;2024-03-02T09:08:43;10.40;99.90
72865;DHT22;61000;48.120;11.548;2024-03-02T09:11:10;10.90;99.90
72865;DHT22;61000;48.120;11.548;2024-03-02T09:13:39;11.70;99.90
72865;DHT22;61000;48.120;11.548;2024-03-02T09:16:07;12.20;99.90
72865;DHT22;61000;48.120;11.548;2024-03-02T09:18:36;12.90;99.90
72865;DHT22;61000;48.120;11.548;2024-03-02T09:21:04;13.30;99.70
72865;DHT22;61000;48.120;11.548;2024-03-02T09:23:31;13.50;99.10
72865;DHT22;61000;48.120;11.548;2024-03-02T09:25:58;13.70;98.60
72865;DHT22;61000;48.120;11.548;2024-03-02T09:28:25;13.90;98.00
72865;DHT22;61000;48.120;11.548;2024-03-02T09:30:53;14.10;97.90
72865;DHT22;61000;48.120;11.548;2024-03-02T09:33:20;14.30;96.80
72865;DHT22;61000;48.120;11.548;2024-03-02T09:35:47;14.40;96.70
72865;DHT22;61000;48.120;11.548;2024-03-02T09:38:14;14.30;96.60
72865;DHT22;61000;48.120;11.548;2024-03-02T09:40:41;14.30;96.80
72865;DHT22;61000;48.120;11.548;2024-03-02T09:43:09;14.10;96.60
72865;DHT22;61000;48.120;11.548;2024-03-02T09:45:36;14.00;96.80
72865;DHT22;61000;48.120;11.548;2024-03-02T09:48:05;13.60;97.10
72865;DHT22;61000;48.120;11.548;2024-03-02T09:50:32;13.30;97.70
72865;DHT22;61000;48.120;11.548;2024-03-02T09:52:59;13.40;96.70
72865;DHT22;61000;48.120;11.548;2024-03-02T09:55:26;13.50;96.60
72865;DHT22;61000;48.120;11.548;2024-03-02T09:57:53;13.70;96.90
72865;DHT22;61000;48.120;11.548;2024-03-02T10:00:21;13.60;96.30
72865;DHT22;61000;48.120;11.548;2024-03-02T10:02:48;13.80;96.70
72865;DHT22;61000;48.120;11.548;2024-03-02T10:05:25;14.30;96.00
72865;DHT22;61000;48.120;11.548;2024-03-02T10:07:59;14.50;95.90
72865;DHT22;61000;48.120;11.548;2024-03-02T10:10:35;14.50;95.40
72865;DHT22;61000;48.120;11.548;2024-03-02T10:13:06;14.60;95.20
72865;DHT22;61000;48.120;11.548;2024-03-02T10:15:34;14.60;95.00
72865;DHT22;61000;48.120;11.548;2024-03-02T10:18:02;14.20;95.20
72865;DHT22;61000;48.120;11.548;2024-03-02T10:20:30;13.80;95.90
72865;DHT22;61000;48.120;11.548;2024-03-02T10:23:10;13.70;96.40
72865;DHT22;61000;48.120;11.548;2024-03-02T10:25:37;13.50;96.50
72865;DHT22;61000;48.120;11.548;2024-03-02T10:28:04;13.20;96.60
72865;DHT22;61000;48.120;11.548;2024-03-02T10:30:32;13.00;96.70
72865;DHT22;61000;48.120;11.548;2024-03-02T10:33:00;12.90;97.20
72865;DHT22;61000;48.120;11.548;2024-03-02T10:35:28;12.90;97.60
72865;DHT22;61000;48.120;11.548;2024-03-02T10:37:58;13.10;97.60
72865;DHT22;61000;48.120;11.548;2024-03-02T10:40:26;13.10;97.40
72865;DHT22;61000;48.120;11.548;2024-03-02T10:42:53;13.00;97.70
72865;DHT22;61000;48.120;11.548;2024-03-02T10:45:21;12.90;97.70
72865;DHT22;61000;48.120;11.548;2024-03-02T10:47:49;13.10;97.80
72865;DHT22;61000;48.120;11.548;2024-03-02T10:50:17;13.00;97.20
72865;DHT22;61000;48.120;11.548;2024-03-02T10:52:44;12.90;97.10
72865;DHT22;61000;48.120;11.548;2024-03-02T10:55:13;13.00;96.80
72865;DHT22;61000;48.120;11.548;2024-03-02T10:57:51;12.80;97.40
72865;DHT22;61000;48.120;11.548;2024-03-02T11:00:19;12.80;97.60
72865;DHT22;61000;48.120;11.548;2024-03-02T11:02:52;12.80;97.10
72865;DHT22;61000;48.120;11.548;2024-03-02T11:05:27;12.70;97.10
72865;DHT22;61000;48.120;11.548;2024-03-02T11:07:59;12.70;97.30
72865;DHT22;61000;48.120;11.548;2024-03-02T11:10:33;12.80;97.10
72865;DHT22;61000;48.120;11.548;2024-03-02T11:13:02;13.00;97.20
72865;DHT22;61000;48.120;11.548;2024-03-02T11:15:30;12.90;97.90
72865;DHT22;61000;48.120;11.548;2024-03-02T11:17:58;13.00;97.80
72865;DHT22;61000;48.120;11.548;2024-03-02T11:20:26;13.20;98.20
72865;DHT22;61000;48.120;11.548;2024-03-02T11:22:54;13.10;97.70
72865;DHT22;61000;48.120;11.548;2024-03-02T11:25:24;13.20;97.90
72865;DHT22;61000;48.120;11.548;2024-03-02T11:28:03;13.40;97.70
72865;DHT22;61000;48.120;11.548;2024-03-02T11:30:51;13.30;97.40
72865;DHT22;61000;48.120;11.548;2024-03-02T11:33:25;13.10;97.80
72865;DHT22;61000;48.120;11.548;2024-03-02T11:35:56;12.80;98.20
72865;DHT22;61000;48.120;11.548;2024-03-02T11:38:29;12.80;98.30
72865;DHT22;61000;48.120;11.548;2024-03-02T11:40:57;12.90;98.60
72865;DHT22;61000;48.120;11.548;2024-03-02T11:43:25;12.80;98.20
72865;DHT22;61000;48.120;11.548;2024-03-02T11:45:57;13.00;98.20
72865;DHT22;61000;48.120;11.548;2024-03-02T11:48:25;13.00;98.00
72865;DHT22;61000;48.120;11.548;2024-03-02T11:50:52;13.10;97.80
72865;DHT22;61000;48.120;11.548;2024-03-02T11:53:20;13.10;98.10
72865;DHT22;61000;48.120;11.548;2024-03-02T11:55:47;13.20;98.00
72865;DHT22;61000;48.120;11.548;2024-03-02T11:58:16;13.20;97.80
72865;DHT22;61000;48.120;11.548;2024-03-02T12:00:47;13.20;97.30
72865;DHT22;61000;48.120;11.548;2024-03-02T12:03:17;13.10;97.00
72865;DHT22;61000;48.120;11.548;2024-03-02T12:05:44;13.10;96.80
72865;DHT22;61000;48.120;11.548;2024-03-02T12:08:11;13.10;96.90
72865;DHT22;61000;48.120;11.548;2024-03-02T12:10:39;13.10;96.90
72865;DHT22;61000;48.120;11.548;2024-03-02T12:13:07;13.20;96.80
72865;DHT22;61000;48.120;11.548;2024-03-02T12:15:37;13.10;96.80
72865;DHT22;61000;48.120;11.548;2024-03-02T12:18:06;13.20;96.40
72865;DHT22;61000;48.120;11.548;2024-03-02T12:20:33;13.30;96.70
72865;DHT22;61000;48.120;11.548;2024-03-02T12:23:01;13.30;96.50
72865;DHT22;61000;48.120;11.548;2024-03-02T12:25:30;13.40;96.50
72865;DHT22;61000;48.120;11.548;2024-03-02T12:28:00;13.60;96.70
72865;DHT22;61000;48.120;11.548;2024-03-02T12:30:29;13.70;96.50
72865;DHT22;61000;48.120;11.548;2024-03-02T12:32:58;13.80;96.40
72865;DHT22;61000;48.120;11.548;2024-03-02T12:35:26;13.90;96.30
72865;DHT22;61000;48.120;11.548;2024-03-02T12:37:54;13.90;96.20
72865;DHT22;61000;48.120;11.548;2024-03-02T12:40:21;13.80;96.30
72865;DHT22;61000;48.120;11.548;2024-03-02T12:42:49;14.00;96.40
72865;DHT22;61000;48.120;11.548;2024-03-02T12:45:16;13.80;96.60
72865;DHT22;61000;48.120;11.548;2024-03-02T12:47:49;13.80;96.90
72865;DHT22;61000;48.120;11.548;2024-03-02T12:50:17;14.00;96.80
72865;DHT22;61000;48.120;11.548;2024-03-02T12:52:51;14.10;96.60
72865;DHT22;61000;48.120;11.548;2024-03-02T12:55:20;14.10;96.40
72865;DHT22;61000;48.120;11.548;2024-03-02T12:57:47;14.00;96.80
72865;DHT22;61000;48.120;11.548;2024-03-02T13:00:18;13.90;97.20
72865;DHT22;61000;48.120;11.548;2024-03-02T13:02:46;13.90;97.90
72865;DHT22;61000;48.120;11.548;2024-03-02T13:05:13;13.90;98.20
72865;DHT22;61000;48.120;11.548;2024-03-02T13:07:40;13.90;97.90
72865;DHT22;61000;48.120;11.548;2024-03-02T13:10:09;14.10;97.50
72865;DHT22;61000;48.120;11.548;2024-03-02T13:12:36;14.00;96.80
72865;DHT22;61000;48.120;11.548;2024-03-02T13:15:05;14.10;96.70
72865;DHT22;61000;48.120;11.548;2024-03-02T13:17:34;14.30;96.70
72865;DHT22;61000;48.120;11.548;2024-03-02T13:20:02;14.20;96.00
72865;DHT22;61000;48.120;11.548;2024-03-02T13:22:33;14.10;96.70
72865;DHT22;61000;48.120;11.548;2024-03-02T13:25:00;14.00;97.60
72865;DHT22;61000;48.120;11.548;2024-03-02T13:27:30;14.00;98.20
72865;DHT22;61000;48.120;11.548;2024-03-02T13:29:57;13.90;98.00
72865;DHT22;61000;48.120;11.548;2024-03-02T13:32:24;13.80;98.70
72865;DHT22;61000;48.120;11.548;2024-03-02T13:34:51;13.90;98.60
72865;DHT22;61000;48.120;11.548;2024-03-02T13:37:19;14.00;99.00
72865;DHT22;61000;48.120;11.548;2024-03-02T13:39:46;14.00;98.60
72865;DHT22;61000;48.120;11.548;2024-03-02T13:42:13;14.00;98.30
72865;DHT22;61000;48.120;11.548;2024-03-02T13:44:43;13.90;98.40
72865;DHT22;61000;48.120;11.548;2024-03-02T13:47:11;13.90;98.50
72865;DHT22;61000;48.120;11.548;2024-03-02T13:49:38;13.90;96.90
72865;DHT22;61000;48.120;11.548;2024-03-02T13:52:09;14.00;97.00
72865;DHT22;61000;48.120;11.548;2024-03-02T13:54:38;14.20;97.20
72865;DHT22;61000;48.120;11.548;2024-03-02T13:57:06;14.20;97.30
72865;DHT22;61000;48.120;11.548;2024-03-02T13:59:34;14.10;97.30
72865;DHT22;61000;48.120;11.548;2024-03-02T14:02:04;14.10;97.50
72865;DHT22;61000;48.120;11.548;2024-03-02T14:04:31;14.00;97.70
72865;DHT22;61000;48.120;11.548;2024-03-02T14:06:58;13.80;97.70
72865;DHT22;61000;48.120;11.548;2024-03-02T14:09:25;13.90;97.80
72865;DHT22;61000;48.120;11.548;2024-03-02T14:11:53;13.80;97.40
72865;DHT22;61000;48.120;11.548;2024-03-02T14:14:20;13.80;97.10
72865;DHT22;61000;48.120;11.548;2024-03-02T14:16:47;13.80;96.90
72865;DHT22;61000;48.120;11.548;2024-03-02T14:19:16;13.70;96.60
72865;DHT22;61000;48.120;11.548;2024-03-02T14:21:42;13.90;96.80
72865;DHT22;61000;48.120;11.548;2024-03-02T14:24:09;14.00;96.50
72865;DHT22;61000;48.120;11.548;2024-03-02T14:26:37;13.90;96.00
72865;DHT22;61000;48.120;11.548;2024-03-02T14:29:04;13.90;96.10
72865;DHT22;61000;48.120;11.548;2024-03-02T14:31:32;13.90;96.20
72865;DHT22;61000;48.120;11.548;2024-03-02T14:33:59;13.90;96.30
72865;DHT22;61000;48.120;11.548;2024-03-02T14:36:28;13.80;96.50
72865;DHT22;61000;48.120;11.548;2024-03-02T14:38:55;13.80;96.60
72865;DHT22;61000;48.120;11.548;2024-03-02T14:41:22;13.70;96.70
72865;DHT22;61000;48.120;11.548;2024-03-02T14:43:50;13.70;96.80
72865;DHT22;61000;48.120;11.548;2024-03-02T14:46:17;13.60;96.80
72865;DHT22;61000;48.120;11.548;2024-03-02T14:48:45;13.60;96.90
72865;DHT22;61000;48.120;11.548;2024-03-02T14:51:13;13.60;96.70
72865;DHT22;61000;48.120;11.548;2024-03-02T14:53:41;13.50;96.30
72865;DHT22;61000;48.120;11.548;2024-03-02T14:56:08;13.50;96.80
72865;DHT22;61000;48.120;11.548;2024-03-02T14:58:35;13.40;96.90
72865;DHT22;61000;48.120;11.548;2024-03-02T15:01:03;13.40;96.80
72865;DHT22;61000;48.120;11.548;2024-03-02T15:03:31;13.40;96.90
72865;DHT22;61000;48.120;11.548;2024-03-02T15:05:58;13.40;96.90
72865;DHT22;61000;48.120;11.548;2024-03-02T15:08:25;13.40;96.90
72865;DHT22;61000;48.120;11.548;2024-03-02T15:10:53;13.40;96.90
72865;DHT22;61000;48.120;11.548;2024-03-02T15:13:21;13.40;97.00
72865;DHT22;61000;48.120;11.548;2024-03-02T15:15:48;13.40;96.90
72865;DHT22;61000;48.120;11.548;2024-03-02T15:18:15;13.30;96.80
72865;DHT22;61000;48.120;11.548;2024-03-02T15:20:42;13.30;96.90
72865;DHT22;61000;48.120;11.548;2024-03-02T15:23:10;13.30;97.00
72865;DHT22;61000;48.120;11.548;2024-03-02T15:25:37;13.20;97.10
72865;DHT22;61000;48.120;11.548;2024-03-02T15:28:06;13.20;97.30
72865;DHT22;61000;48.120;11.548;2024-03-02T15:30:33;13.20;97.50